Time;durP1;ratioP1;P1;durP2;ratioP2;P2;SDS_P1;SDS_P2;PMS_P1;PMS_P2;Temp;Humidity;BMP_temperature;BMP_pressure;BME280_temperature;BME280_humidity;BME280_pressure;Samples;Min_cycle;Max_cycle;Signal;HPM_P1;HPM_P2
2020/12/19 00:00:10;;;;;;;14.83;10.20;;;3.90;99.90;;;;;;5083288;28;20300;-77
2020/12/19 00:02:35;;;;;;;14.40;10.17;;;3.90;99.90;;;;;;5084451;28;20207;-78
2020/12/19 00:05:02;;;;;;;15.10;11.37;;;3.90;99.90;;;;;;5084847;28;20190;-77
2020/12/19 00:07:28;;;;;;;18.87;11.43;;;3.90;99.90;;;;;;5083042;28;20593;-77
2020/12/19 00:09:53;;;;;;;16.70;11.80;;;3.90;99.90;;;;;;5084648;28;20425;-78
2020/12/19 00:12:22;;;;;;;17.73;11.43;;;3.90;99.90;;;;;;5083871;28;20530;-78
2020/12/19 00:14:49;;;;;;;18.17;11.20;;;3.90;99.90;;;;;;5086603;28;20773;-78
2020/12/19 00:17:15;;;;;;;15.93;11.57;;;3.80;99.90;;;;;;5081185;28;20476;-78
2020/12/19 00:19:40;;;;;;;17.17;10.97;;;3.80;99.90;;;;;;5085522;28;20475;-78
2020/12/19 00:22:06;;;;;;;13.70;11.10;;;3.70;99.90;;;;;;5086673;28;20207;-78
2020/12/19 00:24:32;;;;;;;17.57;10.73;;;3.70;99.90;;;;;;5085763;28;20679;-79
2020/12/19 00:26:57;;;;;;;12.60;10.13;;;3.70;99.90;;;;;;5084835;28;20428;-77
2020/12/19 00:29:23;;;;;;;14.30;10.53;;;3.60;99.90;;;;;;5091463;28;20193;-77
2020/12/19 00:31:49;;;;;;;12.47;10.03;;;3.50;99.90;;;;;;5091926;28;20696;-78
2020/12/19 00:34:16;;;;;;;13.90;9.70;;;3.50;99.90;;;;;;5092321;28;20185;-78
2020/12/19 00:36:42;;;;;;;14.07;10.73;;;3.50;99.90;;;;;;5089203;28;20643;-78
2020/12/19 00:39:07;;;;;;;17.00;10.70;;;3.40;99.90;;;;;;5086875;28;20445;-77
2020/12/19 00:41:33;;;;;;;14.37;10.37;;;3.50;99.90;;;;;;5086881;28;20209;-78
2020/12/19 00:43:59;;;;;;;18.23;9.77;;;3.50;99.90;;;;;;5083772;28;20184;-78
2020/12/19 00:46:25;;;;;;;13.37;9.90;;;3.50;99.90;;;;;;5086309;28;20185;-78
2020/12/19 00:48:50;;;;;;;12.70;9.60;;;3.50;99.90;;;;;;5089635;28;20664;-77
2020/12/19 00:51:19;;;;;;;13.20;9.20;;;3.50;99.90;;;;;;5082843;28;20693;-77
2020/12/19 00:53:47;;;;;;;14.33;11.70;;;3.50;99.90;;;;;;5085000;28;20183;-78
2020/12/19 00:56:16;;;;;;;22.50;11.90;;;3.60;99.90;;;;;;5089154;28;20489;-78
2020/12/19 00:58:42;;;;;;;12.93;10.10;;;3.70;99.90;;;;;;5083041;28;20436;-78
2020/12/19 01:01:07;;;;;;;14.20;10.17;;;3.70;99.90;;;;;;5086836;28;20838;-78
2020/12/19 01:03:33;;;;;;;11.40;8.90;;;3.80;99.90;;;;;;5082711;28;20187;-77
2020/12/19 01:05:58;;;;;;;16.40;9.70;;;3.80;99.90;;;;;;5082934;28;20671;-77
2020/12/19 01:08:23;;;;;;;12.03;9.03;;;3.80;99.90;;;;;;5081693;28;20187;-77
2020/12/19 01:10:49;;;;;;;13.33;9.23;;;3.70;99.90;;;;;;5083324;28;20232;-77
2020/12/19 01:13:14;;;;;;;14.67;9.03;;;3.60;99.90;;;;;;5085149;28;20186;-78
2020/12/19 01:15:40;;;;;;;12.73;9.37;;;3.60;99.90;;;;;;5082847;28;20180;-78
2020/12/19 01:18:05;;;;;;;14.87;9.10;;;3.60;99.90;;;;;;5085157;28;20192;-77
2020/12/19 01:20:31;;;;;;;14.13;9.80;;;3.50;99.90;;;;;;5084773;28;20183;-78
2020/12/19 01:22:57;;;;;;;14.27;9.17;;;3.50;99.90;;;;;;5084133;28;20514;-78
2020/12/19 01:25:22;;;;;;;13.63;9.17;;;3.50;99.90;;;;;;5085578;28;20185;-77
2020/12/19 01:27:48;;;;;;;15.57;9.67;;;3.50;99.90;;;;;;5082003;28;20181;-78
2020/12/19 01:30:13;;;;;;;12.13;8.83;;;3.50;99.90;;;;;;5083547;28;20187;-78
2020/12/19 01:32:39;;;;;;;9.50;8.50;;;3.40;99.90;;;;;;5083831;28;20220;-78
2020/12/19 01:35:04;;;;;;;10.40;7.83;;;3.40;99.90;;;;;;5081391;28;20846;-77
2020/12/19 01:37:30;;;;;;;14.30;8.60;;;3.50;99.90;;;;;;5082461;28;20733;-77
2020/12/19 01:39:55;;;;;;;12.30;9.10;;;3.60;99.90;;;;;;5084166;28;20557;-78
2020/12/19 01:42:21;;;;;;;17.00;10.37;;;3.70;99.90;;;;;;5082268;28;20193;-77
2020/12/19 01:44:46;;;;;;;15.40;9.83;;;3.90;99.90;;;;;;5083639;28;20284;-77
2020/12/19 01:47:14;;;;;;;14.20;9.17;;;4.00;99.90;;;;;;5084501;28;20627;-77
2020/12/19 01:49:39;;;;;;;8.90;8.00;;;4.10;99.90;;;;;;5081456;28;20184;-78
2020/12/19 01:52:07;;;;;;;9.90;6.73;;;4.20;99.90;;;;;;5084298;28;20474;-78
2020/12/19 01:54:33;;;;;;;7.23;6.37;;;4.30;99.90;;;;;;5082527;28;20492;-77
2020/12/19 01:57:00;;;;;;;7.53;6.70;;;4.50;99.90;;;;;;5084414;28;20709;-77
2020/12/19 01:59:28;;;;;;;10.53;5.80;;;4.60;99.90;;;;;;5082287;28;20450;-77
2020/12/19 02:01:55;;;;;;;6.13;5.50;;;4.70;99.90;;;;;;5082753;28;20462;-77
2020/12/19 02:04:23;;;;;;;6.77;5.77;;;4.70;99.90;;;;;;5084143;28;20421;-78
2020/12/19 02:06:53;;;;;;;13.00;6.37;;;4.70;99.90;;;;;;5082644;28;20548;-77
2020/12/19 02:09:21;;;;;;;7.80;6.30;;;4.70;99.90;;;;;;5084390;28;20886;-77
2020/12/19 02:11:47;;;;;;;6.90;6.03;;;4.60;99.90;;;;;;5082683;28;20472;-77
2020/12/19 02:14:14;;;;;;;5.23;4.73;;;4.60;99.90;;;;;;5084934;28;20412;-77
2020/12/19 02:17:02;;;;;;;6.20;5.30;;;4.60;99.90;;;;;;5083843;28;20663;-78
2020/12/19 02:19:28;;;;;;;6.93;5.30;;;4.60;99.90;;;;;;5080615;28;20451;-77
2020/12/19 02:21:55;;;;;;;6.30;5.20;;;4.70;99.90;;;;;;5083144;28;20539;-77
2020/12/19 02:24:21;;;;;;;4.60;4.20;;;4.70;99.90;;;;;;5081600;28;20429;-77
2020/12/19 02:26:48;;;;;;;7.37;5.30;;;4.70;99.90;;;;;;5080879;28;20434;-77
2020/12/19 02:29:14;;;;;;;7.57;6.10;;;4.70;99.90;;;;;;5083542;28;20444;-77
2020/12/19 02:31:39;;;;;;;9.57;6.00;;;4.70;99.90;;;;;;5080393;28;20858;-77
2020/12/19 02:34:05;;;;;;;6.27;5.67;;;4.80;99.90;;;;;;5083381;28;20182;-77
2020/12/19 02:36:30;;;;;;;7.67;6.87;;;4.80;99.90;;;;;;5082542;28;20186;-77
2020/12/19 02:38:56;;;;;;;10.50;7.50;;;4.80;99.90;;;;;;5082230;28;20192;-77
2020/12/19 02:41:21;;;;;;;9.03;7.10;;;4.80;99.90;;;;;;5080879;28;20235;-78
2020/12/19 02:43:52;;;;;;;12.40;7.47;;;4.80;99.90;;;;;;5082947;28;20246;-78
2020/12/19 02:46:17;;;;;;;8.87;7.93;;;4.80;99.90;;;;;;5081196;28;20178;-77
2020/12/19 02:48:43;;;;;;;10.70;8.17;;;4.70;99.90;;;;;;5083649;28;20414;-77
2020/12/19 02:51:08;;;;;;;11.57;8.70;;;4.70;99.90;;;;;;5109636;27;20297;-78
2020/12/19 02:53:34;;;;;;;9.87;8.60;;;4.70;99.90;;;;;;5081315;28;20223;-78
2020/12/19 02:56:02;;;;;;;10.77;7.60;;;4.70;99.90;;;;;;5082351;28;20671;-77
2020/12/19 02:58:28;;;;;;;11.20;7.73;;;4.70;99.90;;;;;;5083191;28;20603;-78
2020/12/19 03:00:53;;;;;;;11.70;8.57;;;4.60;99.90;;;;;;5080485;28;20473;-78
2020/12/19 03:03:19;;;;;;;9.43;8.43;;;4.50;99.90;;;;;;5083844;28;20180;-77
2020/12/19 03:05:44;;;;;;;11.20;8.10;;;4.40;99.90;;;;;;5080031;28;20182;-77
2020/12/19 03:08:10;;;;;;;12.30;8.47;;;4.40;99.90;;;;;;5081252;28;20271;-79
2020/12/19 03:10:35;;;;;;;11.70;8.73;;;4.30;99.90;;;;;;5081201;28;20180;-77
2020/12/19 03:13:01;;;;;;;14.17;8.93;;;4.20;99.90;;;;;;5084419;28;20194;-78
2020/12/19 03:15:28;;;;;;;10.50;8.37;;;4.20;99.90;;;;;;5082376;28;20211;-77
2020/12/19 03:17:53;;;;;;;11.07;8.40;;;4.20;99.90;;;;;;5082743;28;20236;-77
2020/12/19 03:20:19;;;;;;;9.63;7.70;;;4.20;99.90;;;;;;5080440;28;21002;-78
2020/12/19 03:22:45;;;;;;;11.10;8.50;;;4.10;99.90;;;;;;5081292;28;20675;-77
2020/12/19 03:25:10;;;;;;;9.57;7.83;;;4.00;99.90;;;;;;5081567;28;20183;-77
2020/12/19 03:27:36;;;;;;;13.90;8.80;;;3.90;99.90;;;;;;5078752;28;20268;-77
2020/12/19 03:30:02;;;;;;;12.00;8.33;;;3.90;99.90;;;;;;5080126;28;20187;-77
2020/12/19 03:32:27;;;;;;;11.20;8.13;;;3.90;99.90;;;;;;5081369;28;20297;-77
2020/12/19 03:34:52;;;;;;;14.20;9.93;;;3.80;99.90;;;;;;5080324;28;20469;-78
2020/12/19 03:37:18;;;;;;;10.60;7.70;;;3.70;99.90;;;;;;5082823;28;20172;-77
2020/12/19 03:39:43;;;;;;;11.07;8.67;;;3.70;99.90;;;;;;5081912;28;20676;-78
2020/12/19 03:42:09;;;;;;;10.23;8.33;;;3.60;99.90;;;;;;5080998;28;20285;-78
2020/12/19 03:44:34;;;;;;;13.30;7.13;;;3.60;99.90;;;;;;5079758;28;20274;-78
2020/12/19 03:47:00;;;;;;;12.43;9.10;;;3.50;99.90;;;;;;5081965;28;20190;-78
2020/12/19 03:49:25;;;;;;;11.70;8.80;;;3.60;99.90;;;;;;5082025;28;20188;-78
2020/12/19 03:51:51;;;;;;;9.10;7.50;;;3.60;99.90;;;;;;5081395;28;20204;-78
2020/12/19 03:54:16;;;;;;;11.30;8.40;;;3.60;99.90;;;;;;5080087;28;20194;-78
2020/12/19 03:56:42;;;;;;;13.03;8.43;;;3.60;99.90;;;;;;5083651;28;20628;-78
2020/12/19 03:59:08;;;;;;;7.67;6.80;;;3.50;99.90;;;;;;5088081;28;20188;-78
2020/12/19 04:01:33;;;;;;;7.23;6.17;;;3.40;99.90;;;;;;5079158;28;20707;-78
2020/12/19 04:03:59;;;;;;;11.43;7.33;;;3.30;99.90;;;;;;5081815;28;20183;-78
2020/12/19 04:06:24;;;;;;;7.93;6.03;;;3.20;99.90;;;;;;5080391;28;20186;-78
2020/12/19 04:08:51;;;;;;;11.13;6.63;;;3.20;99.90;;;;;;5081154;28;20255;-77
2020/12/19 04:11:16;;;;;;;13.83;10.00;;;3.10;99.90;;;;;;5081646;28;20679;-76
2020/12/19 04:13:42;;;;;;;10.70;7.73;;;3.10;99.90;;;;;;5082886;28;20427;-77
2020/12/19 04:16:07;;;;;;;13.70;8.40;;;3.10;99.90;;;;;;5082130;28;20178;-77
2020/12/19 04:18:33;;;;;;;14.00;8.50;;;3.20;99.90;;;;;;5082322;28;20193;-77
2020/12/19 04:20:58;;;;;;;9.47;8.13;;;3.10;99.90;;;;;;5084419;28;20616;-77
2020/12/19 04:23:24;;;;;;;10.63;8.30;;;3.10;99.90;;;;;;5085130;28;20269;-77
2020/12/19 04:25:49;;;;;;;10.40;9.10;;;3.10;99.90;;;;;;5081705;28;20540;-77
2020/12/19 04:28:15;;;;;;;14.23;9.10;;;3.10;99.90;;;;;;5084254;28;20845;-77
2020/12/19 04:30:40;;;;;;;14.23;8.43;;;3.10;99.90;;;;;;5082587;28;20255;-77
2020/12/19 04:33:06;;;;;;;14.23;11.00;;;3.10;99.90;;;;;;5085763;28;20192;-77
2020/12/19 04:35:31;;;;;;;14.03;10.50;;;3.20;99.90;;;;;;5083601;28;20252;-77
2020/12/19 04:37:57;;;;;;;14.77;9.83;;;3.30;99.90;;;;;;5083518;28;20174;-77
2020/12/19 04:40:23;;;;;;;13.33;9.50;;;3.30;99.90;;;;;;5082400;28;20202;-76
2020/12/19 04:42:48;;;;;;;17.87;9.30;;;3.40;99.90;;;;;;5083426;28;20187;-77
2020/12/19 04:45:14;;;;;;;14.47;9.37;;;3.50;99.90;;;;;;5083241;28;20423;-77
2020/12/19 04:47:40;;;;;;;11.57;9.50;;;3.50;99.90;;;;;;5085360;28;20188;-76
2020/12/19 04:50:06;;;;;;;12.90;9.30;;;3.50;99.90;;;;;;5082205;28;20220;-77
2020/12/19 04:52:31;;;;;;;12.50;8.97;;;3.50;99.90;;;;;;5085155;28;20506;-77
2020/12/19 04:54:57;;;;;;;12.17;8.90;;;3.40;99.90;;;;;;5084400;28;20569;-77
2020/12/19 04:57:22;;;;;;;14.33;10.47;;;3.40;99.90;;;;;;5083572;28;20182;-77
2020/12/19 04:59:48;;;;;;;11.83;8.33;;;3.30;99.90;;;;;;5081286;28;20814;-77
2020/12/19 05:02:14;;;;;;;10.73;9.57;;;3.40;99.90;;;;;;5084336;28;20282;-76
2020/12/19 05:04:41;;;;;;;14.80;9.30;;;3.40;99.90;;;;;;5081900;28;20504;-76
2020/12/19 05:07:09;;;;;;;12.30;9.27;;;3.40;99.90;;;;;;5084467;28;20620;-76
2020/12/19 05:09:37;;;;;;;9.93;8.33;;;3.40;99.90;;;;;;5083975;28;20897;-77
2020/12/19 05:12:02;;;;;;;12.23;8.70;;;3.30;99.90;;;;;;5085714;28;20477;-76
2020/12/19 05:14:31;;;;;;;10.00;8.93;;;3.30;99.90;;;;;;5083462;28;20424;-77
2020/12/19 05:16:57;;;;;;;13.50;9.00;;;3.30;99.90;;;;;;5084410;28;20174;-76
2020/12/19 05:19:26;;;;;;;14.10;10.00;;;3.30;99.90;;;;;;5082046;28;20416;-77
2020/12/19 05:21:54;;;;;;;14.40;10.90;;;3.30;99.90;;;;;;5083808;28;20458;-76
2020/12/19 05:24:26;;;;;;;12.47;9.20;;;3.20;99.90;;;;;;5081982;28;20457;-76
2020/12/19 05:26:52;;;;;;;12.70;9.10;;;3.30;99.90;;;;;;5081413;28;20422;-76
2020/12/19 05:29:18;;;;;;;9.73;7.67;;;3.30;99.90;;;;;;5079544;28;20477;-77
2020/12/19 05:31:49;;;;;;;12.00;9.33;;;3.30;99.90;;;;;;5083242;28;20232;-77
2020/12/19 05:34:15;;;;;;;9.73;8.43;;;3.10;99.90;;;;;;5082391;28;20431;-77
2020/12/19 05:36:41;;;;;;;15.53;9.17;;;3.10;99.90;;;;;;5081447;28;20419;-77
2020/12/19 05:39:07;;;;;;;13.27;8.73;;;3.10;99.90;;;;;;5082385;28;20193;-77
2020/12/19 05:41:37;;;;;;;9.57;8.00;;;3.00;99.90;;;;;;5082014;28;20212;-77
2020/12/19 05:44:02;;;;;;;10.37;8.90;;;3.00;99.90;;;;;;5080122;28;20405;-76
2020/12/19 05:46:38;;;;;;;10.03;7.87;;;2.90;99.90;;;;;;5082303;28;20935;-76
2020/12/19 05:49:05;;;;;;;8.77;7.43;;;2.90;99.90;;;;;;5081459;28;20180;-76
2020/12/19 05:51:32;;;;;;;12.53;8.13;;;2.80;99.90;;;;;;5083389;28;20498;-76
2020/12/19 05:54:05;;;;;;;8.50;7.33;;;2.70;99.90;;;;;;5082250;28;20427;-76
2020/12/19 05:56:40;;;;;;;9.10;7.20;;;2.70;99.90;;;;;;5081367;28;21209;-76
2020/12/19 05:59:13;;;;;;;10.13;7.67;;;2.50;99.90;;;;;;5083823;28;20428;-77
2020/12/19 06:01:40;;;;;;;7.47;6.67;;;2.50;99.90;;;;;;5080832;28;20602;-75
2020/12/19 06:04:08;;;;;;;8.80;7.60;;;2.40;99.90;;;;;;5081843;28;20431;-76
2020/12/19 06:06:37;;;;;;;11.90;7.50;;;2.40;99.90;;;;;;5080259;28;20451;-76
2020/12/19 06:09:03;;;;;;;9.90;7.90;;;2.40;99.90;;;;;;5080317;28;20443;-75
2020/12/19 06:11:34;;;;;;;16.20;9.20;;;2.40;99.90;;;;;;5081851;28;20466;-75
2020/12/19 06:14:05;;;;;;;22.10;9.07;;;2.30;99.90;;;;;;5083853;28;20193;-75
2020/12/19 06:16:32;;;;;;;11.13;7.60;;;2.20;99.90;;;;;;5081822;28;20399;-76
2020/12/19 06:19:19;;;;;;;8.43;6.37;;;2.20;99.90;;;;;;5082088;28;20449;-75
2020/12/19 06:21:55;;;;;;;9.20;7.03;;;2.20;99.90;;;;;;5079823;28;20938;-75
2020/12/19 06:24:44;;;;;;;12.60;7.70;;;2.10;99.90;;;;;;5082471;28;20910;-76
2020/12/19 06:27:22;;;;;;;10.13;6.90;;;2.10;99.90;;;;;;5080221;28;20447;-75
2020/12/19 06:29:52;;;;;;;11.23;7.67;;;2.10;99.90;;;;;;5080543;28;20966;-77
2020/12/19 06:32:22;;;;;;;12.00;7.83;;;2.10;99.90;;;;;;5083085;28;20502;-77
2020/12/19 06:35:08;;;;;;;10.60;7.27;;;2.10;99.90;;;;;;5083189;28;20449;-78
2020/12/19 06:37:36;;;;;;;8.13;7.33;;;2.10;99.90;;;;;;5082546;28;20418;-78
2020/12/19 06:40:13;;;;;;;9.10;6.60;;;2.10;99.90;;;;;;5082038;28;20406;-78
2020/12/19 06:42:40;;;;;;;10.10;8.00;;;2.00;99.90;;;;;;5078929;28;20846;-79
2020/12/19 06:45:19;;;;;;;10.90;7.50;;;1.90;99.90;;;;;;5082582;28;20511;-78
2020/12/19 06:47:45;;;;;;;9.30;6.57;;;1.90;99.90;;;;;;5080827;28;20963;-78
2020/12/19 06:50:10;;;;;;;7.97;6.87;;;1.90;99.90;;;;;;5081210;28;20409;-78
2020/12/19 06:52:36;;;;;;;10.77;6.67;;;1.80;99.90;;;;;;5081943;28;20228;-78
2020/12/19 06:55:18;;;;;;;9.50;7.20;;;1.80;99.90;;;;;;5082299;28;20196;-78
2020/12/19 06:57:53;;;;;;;9.83;7.50;;;1.80;99.90;;;;;;5079299;28;20735;-78
2020/12/19 07:00:31;;;;;;;9.23;7.50;;;1.80;99.90;;;;;;5083729;28;20805;-78
2020/12/19 07:02:59;;;;;;;11.50;7.27;;;1.80;99.90;;;;;;5087924;28;20543;-78
2020/12/19 07:05:26;;;;;;;14.67;8.50;;;1.80;99.90;;;;;;5084435;28;20919;-78
2020/12/19 07:08:19;;;;;;;10.90;9.00;;;1.80;99.90;;;;;;5084484;28;20987;-78
2020/12/19 07:10:45;;;;;;;10.97;7.93;;;1.90;99.90;;;;;;5081980;28;20450;-78
2020/12/19 07:13:11;;;;;;;12.60;9.77;;;2.00;99.90;;;;;;5085016;28;20416;-74
2020/12/19 07:15:45;;;;;;;11.70;9.63;;;2.10;99.90;;;;;;5079861;28;20444;-75
2020/12/19 07:18:25;;;;;;;17.67;10.50;;;2.30;99.90;;;;;;5080412;28;20826;-75
2020/12/19 07:21:08;;;;;;;15.03;10.17;;;2.40;99.90;;;;;;5079478;28;20587;-75
2020/12/19 07:23:37;;;;;;;13.00;9.03;;;2.50;99.90;;;;;;5079737;28;20440;-74
2020/12/19 07:26:04;;;;;;;16.17;10.60;;;2.60;99.90;;;;;;5081309;28;20411;-76
2020/12/19 07:28:30;;;;;;;12.07;9.83;;;2.60;99.90;;;;;;5079673;28;20413;-74
2020/12/19 07:30:56;;;;;;;13.70;9.40;;;2.60;99.90;;;;;;5080158;28;22875;-75
2020/12/19 07:33:21;;;;;;;14.03;10.67;;;2.60;99.90;;;;;;5078118;28;20193;-75
2020/12/19 07:35:48;;;;;;;15.10;11.33;;;2.60;99.90;;;;;;5081985;28;20528;-74
2020/12/19 07:38:14;;;;;;;13.60;10.60;;;2.70;99.90;;;;;;5080950;28;20548;-74
2020/12/19 07:40:39;;;;;;;16.73;10.17;;;2.70;99.90;;;;;;5079247;28;20963;-74
2020/12/19 07:43:07;;;;;;;14.90;10.47;;;2.80;99.90;;;;;;5081129;28;20193;-75
2020/12/19 07:45:34;;;;;;;13.80;10.47;;;2.80;99.90;;;;;;5079141;28;20832;-75
2020/12/19 07:47:59;;;;;;;13.30;10.00;;;3.00;99.90;;;;;;5080505;28;20424;-74
2020/12/19 07:50:26;;;;;;;15.33;10.33;;;3.00;99.90;;;;;;5081484;28;20902;-74
2020/12/19 07:53:02;;;;;;;14.70;11.07;;;3.00;99.90;;;;;;5081287;28;20209;-75
2020/12/19 07:55:27;;;;;;;17.80;11.43;;;3.10;99.90;;;;;;5083179;28;20970;-74
2020/12/19 07:57:54;;;;;;;13.90;10.30;;;3.20;99.90;;;;;;5089217;28;20420;-75
2020/12/19 08:00:21;;;;;;;14.43;10.23;;;3.30;99.90;;;;;;5082151;28;20172;-74
2020/12/19 08:02:46;;;;;;;18.23;11.40;;;3.30;99.90;;;;;;5086302;28;20909;-74
2020/12/19 08:05:12;;;;;;;13.03;9.93;;;3.40;99.90;;;;;;5084470;28;20456;-75
2020/12/19 08:07:38;;;;;;;12.23;9.37;;;3.40;99.90;;;;;;5081781;28;20196;-75
2020/12/19 08:10:05;;;;;;;13.63;9.73;;;3.50;99.90;;;;;;5084640;28;20180;-75
2020/12/19 08:12:31;;;;;;;13.63;10.20;;;3.50;99.90;;;;;;5080939;28;20221;-75
2020/12/19 08:14:59;;;;;;;18.57;10.30;;;3.60;99.90;;;;;;5097618;28;20433;-75
2020/12/19 08:17:26;;;;;;;16.90;12.00;;;3.60;99.90;;;;;;5082330;28;20222;-75
2020/12/19 08:19:55;;;;;;;15.60;10.70;;;3.70;99.90;;;;;;5084949;28;20419;-75
2020/12/19 08:22:21;;;;;;;11.90;10.57;;;3.80;99.90;;;;;;5087196;28;20493;-75
2020/12/19 08:24:48;;;;;;;14.70;10.57;;;3.80;99.90;;;;;;5087611;28;20448;-75
2020/12/19 08:27:36;;;;;;;12.93;9.87;;;3.90;99.90;;;;;;5084280;28;20481;-74
2020/12/19 08:30:16;;;;;;;14.80;9.93;;;4.00;99.90;;;;;;5084903;28;20856;-74
2020/12/19 08:32:44;;;;;;;15.90;9.10;;;4.00;99.90;;;;;;5083991;28;20473;-74
2020/12/19 08:35:16;;;;;;;15.83;9.70;;;4.10;99.90;;;;;;5085029;28;20936;-74
2020/12/19 08:37:41;;;;;;;14.00;10.00;;;4.10;99.90;;;;;;5082960;28;20402;-75
2020/12/19 08:40:08;;;;;;;14.43;9.80;;;4.20;99.90;;;;;;5084944;28;20448;-75
2020/12/19 08:42:35;;;;;;;12.37;10.53;;;4.20;99.90;;;;;;5083905;28;20207;-74
2020/12/19 08:45:24;;;;;;;15.87;9.60;;;4.30;99.90;;;;;;5082462;28;20461;-76
2020/12/19 08:47:52;;;;;;;17.57;9.77;;;4.40;99.90;;;;;;5082102;28;20763;-76
2020/12/19 08:50:24;;;;;;;13.20;10.00;;;4.50;99.90;;;;;;5082683;28;20458;-76
2020/12/19 08:53:09;;;;;;;16.50;10.40;;;4.60;99.90;;;;;;5084779;28;20470;-75
2020/12/19 08:55:35;;;;;;;17.20;10.30;;;4.60;99.90;;;;;;5082486;28;20431;-75
2020/12/19 08:58:02;;;;;;;11.90;9.73;;;4.70;99.90;;;;;;5083939;28;20446;-75
2020/12/19 09:00:38;;;;;;;16.43;10.93;;;4.80;99.90;;;;;;5079126;28;20428;-75
2020/12/19 09:03:06;;;;;;;13.90;9.50;;;5.00;99.90;;;;;;5080652;28;20917;-75
2020/12/19 09:05:42;;;;;;;16.13;8.83;;;5.10;99.90;;;;;;5081317;28;20477;-75
2020/12/19 09:08:13;;;;;;;12.70;9.97;;;5.20;99.90;;;;;;5084044;28;20885;-75
2020/12/19 09:10:40;;;;;;;14.27;10.77;;;5.40;99.90;;;;;;5081797;28;20823;-75
2020/12/19 09:13:20;;;;;;;10.33;9.33;;;5.50;99.90;;;;;;5086511;28;20440;-75
2020/12/19 09:15:46;;;;;;;12.53;10.80;;;6.00;99.90;;;;;;5081167;28;20415;-75
2020/12/19 09:18:13;;;;;;;9.37;8.40;;;6.80;99.90;;;;;;5082028;28;20444;-76
2020/12/19 09:20:38;;;;;;;15.50;9.30;;;7.40;99.90;;;;;;5080528;28;20811;-74
2020/12/19 09:23:05;;;;;;;10.47;9.30;;;8.00;99.90;;;;;;5083811;28;20466;-75
2020/12/19 09:25:32;;;;;;;12.37;9.53;;;8.80;99.90;;;;;;5082382;28;20182;-74
2020/12/19 09:27:57;;;;;;;14.73;9.37;;;9.50;99.90;;;;;;5082310;28;20451;-75
2020/12/19 09:30:23;;;;;;;11.27;9.10;;;9.90;99.90;;;;;;5084541;28;20493;-75
2020/12/19 09:32:49;;;;;;;12.60;8.90;;;10.50;99.90;;;;;;5084895;28;20222;-75
2020/12/19 09:35:14;;;;;;;11.67;8.97;;;10.90;99.90;;;;;;5079489;28;20185;-75
2020/12/19 09:37:39;;;;;;;11.13;9.97;;;11.20;99.90;;;;;;5084783;28;20225;-75
2020/12/19 09:40:05;;;;;;;13.33;9.00;;;11.70;99.90;;;;;;5081341;28;20196;-75
2020/12/19 09:42:30;;;;;;;12.03;8.90;;;11.50;99.90;;;;;;5084284;28;20210;-74
2020/12/19 09:44:56;;;;;;;10.57;8.63;;;11.50;99.90;;;;;;5080674;28;20434;-75
2020/12/19 09:47:21;;;;;;;18.17;8.40;;;11.40;99.90;;;;;;5081529;28;20187;-75
2020/12/19 09:49:47;;;;;;;11.67;8.63;;;11.40;99.90;;;;;;5082753;28;20722;-75
2020/12/19 09:52:12;;;;;;;11.53;9.37;;;11.60;99.90;;;;;;5081396;28;20220;-75
2020/12/19 09:54:38;;;;;;;11.40;8.23;;;11.80;99.90;;;;;;5079591;28;20199;-75
2020/12/19 09:57:03;;;;;;;15.40;9.07;;;11.80;99.90;;;;;;5080694;28;20193;-75
2020/12/19 09:59:29;;;;;;;12.20;8.50;;;12.00;99.90;;;;;;5085612;28;21330;-75
2020/12/19 10:01:54;;;;;;;16.53;10.10;;;12.00;99.90;;;;;;5081253;28;20214;-75
2020/12/19 10:04:20;;;;;;;10.83;8.97;;;11.70;99.90;;;;;;5080134;28;20180;-75
2020/12/19 10:06:50;;;;;;;9.33;7.80;;;11.80;99.90;;;;;;5083627;28;20509;-75
2020/12/19 10:09:15;;;;;;;12.47;9.10;;;11.60;99.90;;;;;;5079784;28;20621;-75
2020/12/19 10:11:40;;;;;;;9.50;7.73;;;11.50;99.90;;;;;;5082752;28;20473;-75
2020/12/19 10:14:06;;;;;;;13.20;8.40;;;11.60;99.90;;;;;;5079035;28;20179;-75
2020/12/19 10:16:31;;;;;;;11.30;8.07;;;11.30;99.90;;;;;;5081375;28;20189;-76
2020/12/19 10:18:57;;;;;;;8.43;7.73;;;11.40;99.90;;;;;;5081316;28;20193;-76
2020/12/19 10:21:22;;;;;;;12.10;9.17;;;11.50;99.90;;;;;;5082750;28;20721;-75
2020/12/19 10:23:48;;;;;;;8.33;7.53;;;11.30;99.90;;;;;;5080072;28;20225;-76
2020/12/19 10:26:13;;;;;;;11.13;8.60;;;11.50;99.90;;;;;;5084083;28;20188;-75
2020/12/19 10:28:39;;;;;;;15.53;9.00;;;11.70;99.90;;;;;;5081862;28;20551;-75
2020/12/19 10:31:04;;;;;;;9.50;8.40;;;11.90;99.90;;;;;;5079836;28;20772;-75
2020/12/19 10:33:30;;;;;;;10.00;6.70;;;12.10;99.90;;;;;;5081062;28;20264;-75
2020/12/19 10:35:55;;;;;;;10.30;7.90;;;12.20;99.90;;;;;;5081138;28;20257;-74
2020/12/19 10:38:21;;;;;;;14.93;8.30;;;12.20;99.90;;;;;;5080023;28;20183;-74
2020/12/19 10:40:47;;;;;;;11.10;7.30;;;12.50;99.90;;;;;;5082542;28;20912;-75
2020/12/19 10:43:12;;;;;;;8.60;7.40;;;12.60;99.90;;;;;;5084742;28;20194;-77
2020/12/19 10:45:38;;;;;;;10.10;7.57;;;12.60;99.90;;;;;;5079629;28;20221;-75
2020/12/19 10:48:03;;;;;;;12.93;8.57;;;12.60;99.90;;;;;;5078100;28;20696;-75
2020/12/19 10:50:29;;;;;;;12.20;7.77;;;12.70;99.90;;;;;;5079832;28;20236;-76
2020/12/19 10:52:54;;;;;;;10.40;7.50;;;12.70;99.90;;;;;;5081425;28;20296;-75
2020/12/19 10:55:19;;;;;;;9.90;7.97;;;12.90;99.90;;;;;;5077680;28;20208;-75
2020/12/19 10:57:45;;;;;;;9.80;7.97;;;13.10;99.90;;;;;;5080245;28;20180;-76
2020/12/19 11:00:10;;;;;;;9.57;8.20;;;13.00;99.90;;;;;;5079625;28;20205;-75
2020/12/19 11:02:36;;;;;;;9.17;7.73;;;13.00;99.90;;;;;;5080318;28;20204;-75
2020/12/19 11:05:01;;;;;;;9.50;7.87;;;13.10;99.90;;;;;;5081139;28;20650;-75
2020/12/19 11:07:27;;;;;;;9.97;8.00;;;13.30;99.90;;;;;;5078907;28;20259;-75
2020/12/19 11:09:53;;;;;;;9.37;7.80;;;13.40;99.90;;;;;;5080601;28;20185;-75
2020/12/19 11:12:18;;;;;;;11.53;8.40;;;13.30;99.90;;;;;;5082590;28;20608;-75
2020/12/19 11:14:44;;;;;;;12.77;7.60;;;13.10;99.90;;;;;;5079582;28;20220;-76
2020/12/19 11:17:09;;;;;;;11.50;7.80;;;12.80;99.90;;;;;;5080403;28;20240;-75
2020/12/19 11:19:35;;;;;;;9.97;7.80;;;12.60;99.90;;;;;;5079903;28;20212;-75
2020/12/19 11:22:01;;;;;;;12.03;7.13;;;12.50;99.90;;;;;;5081734;28;20620;-74
2020/12/19 11:24:26;;;;;;;6.90;6.30;;;12.20;99.90;;;;;;5079986;28;20427;-75
2020/12/19 11:26:52;;;;;;;14.20;8.70;;;12.20;99.90;;;;;;5080891;28;20555;-75
2020/12/19 11:29:17;;;;;;;17.03;8.17;;;12.20;99.90;;;;;;5087727;28;20217;-75
2020/12/19 11:31:43;;;;;;;15.80;8.10;;;12.20;99.90;;;;;;5080298;28;20275;-75
2020/12/19 11:34:12;;;;;;;14.13;8.30;;;12.20;99.90;;;;;;5079791;28;20183;-75
2020/12/19 11:36:38;;;;;;;9.33;8.17;;;12.20;99.90;;;;;;5080987;28;20175;-73
2020/12/19 11:39:08;;;;;;;9.13;8.17;;;12.00;99.90;;;;;;5080059;28;20497;-77
2020/12/19 11:41:34;;;;;;;9.70;8.10;;;12.00;99.90;;;;;;5080461;28;20962;-76
2020/12/19 11:43:59;;;;;;;8.60;7.70;;;12.00;99.90;;;;;;5081189;28;20529;-75
2020/12/19 11:46:25;;;;;;;9.63;8.40;;;11.90;99.90;;;;;;5079404;28;21030;-75
2020/12/19 11:48:50;;;;;;;13.60;8.63;;;11.70;99.90;;;;;;5080199;28;20180;-77
2020/12/19 11:51:16;;;;;;;9.17;7.80;;;11.70;99.90;;;;;;5080921;28;20206;-75
2020/12/19 11:53:41;;;;;;;9.17;6.63;;;11.60;99.90;;;;;;5080100;28;20243;-75
2020/12/19 11:56:07;;;;;;;10.10;8.00;;;11.50;99.90;;;;;;5079321;28;20234;-75
2020/12/19 11:58:33;;;;;;;8.60;7.70;;;11.50;99.90;;;;;;5077386;28;20192;-77
2020/12/19 12:00:58;;;;;;;14.43;9.27;;;11.60;99.90;;;;;;5080785;28;20195;-76
2020/12/19 12:03:24;;;;;;;9.60;7.67;;;11.70;99.90;;;;;;5077984;28;20426;-75
2020/12/19 12:05:49;;;;;;;8.53;7.70;;;11.70;99.90;;;;;;5080580;28;20701;-77
2020/12/19 12:08:15;;;;;;;8.70;7.80;;;11.80;99.90;;;;;;5077218;28;20265;-76
2020/12/19 12:10:43;;;;;;;9.30;8.30;;;11.90;99.90;;;;;;5089464;28;20287;-75
2020/12/19 12:13:08;;;;;;;11.93;8.33;;;12.00;99.90;;;;;;5088655;28;20569;-76
2020/12/19 12:15:34;;;;;;;9.67;8.10;;;12.10;99.90;;;;;;5080986;28;20539;-75
2020/12/19 12:17:59;;;;;;;9.07;7.47;;;12.40;99.90;;;;;;5080775;28;20645;-77
2020/12/19 12:20:25;;;;;;;12.70;8.20;;;12.60;99.90;;;;;;5079014;28;20191;-76
2020/12/19 12:22:50;;;;;;;9.40;6.80;;;12.70;99.90;;;;;;5082712;28;20191;-75
2020/12/19 12:25:16;;;;;;;13.20;7.87;;;12.80;99.90;;;;;;5079475;28;20680;-76
2020/12/19 12:27:41;;;;;;;10.83;8.20;;;12.90;99.90;;;;;;5082444;28;20188;-76
2020/12/19 12:30:07;;;;;;;9.43;7.13;;;12.90;99.90;;;;;;5080564;28;20666;-76
2020/12/19 12:32:33;;;;;;;24.87;7.63;;;12.90;99.90;;;;;;5078953;28;20212;-75
2020/12/19 12:34:58;;;;;;;11.63;8.60;;;12.90;99.90;;;;;;5076669;28;20188;-75
2020/12/19 12:37:24;;;;;;;7.30;6.70;;;12.90;99.90;;;;;;5080948;28;20687;-74
2020/12/19 12:39:49;;;;;;;7.97;6.63;;;12.80;99.90;;;;;;5085036;28;20180;-76
2020/12/19 12:42:23;;;;;;;8.23;7.27;;;12.80;99.90;;;;;;5082055;28;20212;-77
2020/12/19 12:44:49;;;;;;;9.00;7.50;;;12.90;99.90;;;;;;5084252;28;20214;-75